INDIA METEOROLOGICAL DEPARTMENT, R.M.C. NEW DELHI
Dated:17 - 10 - 2018
METARS OF ALTERNATE AIRPORTS
Delhi      
VIDP 170400Z 15006KT 2500 HZ FEW100 28/15 Q1013 NOSIG=
Amritsar   
VIAR 170400Z VRB02KT 5000 HZ NSC 22/16 Q1014 NOSIG=
Lucknow    
VILK 170400Z 16004KT 3000 HZ NSC 29/18 Q1013 NOSIG=
Jaipur     
VIJP 170400Z 25004KT 2000 HZ NSC 28/11 Q1014 NOSIG=
Ahmedabad  
VAAH 170400Z 34003KT 4000 FU FEW080 31/19 Q1014 BECMG 5000=
Udaipur    
VAUD 170400Z 00000KT 5000 HZ FEW100 29/14 Q1016 NOSIG=
Mumbai     
VABB 170400Z 11005KT 2500 HZ SCT100 31/24 Q1013 NOSIG=